If you wish to contribute or participate in the discussions about articles you are invited to join SKYbrary as a registered user

 Actions

Land's End Airport

From SKYbrary Wiki

EGHC
Airport
ICAO: EGHC – IATA: LEQ
Summary
Name Land's End Airport
Region Europe
Territory United Kingdom GB.gif
Location , England
Serving Land's End
Elevation 122.225 m
401 ft
401 ft122.225 m
Type medium airport
Coordinates 50° 6' 10.08" N, 5° 40' 14.02" W
Runways
Designator Length Width Surface ROPS
2/20 604 m1,981.627 ft
18 m59.055 ft
Grass /
7/25 695 m2,280.184 ft
36 m118.11 ft
Grass /
12/30 479 m1,571.522 ft
18 m59.055 ft
Grass /
16/34 792 m2,598.425 ft
36 m118.11 ft
Grass /


METAR
Observation EGHC 250720Z 20020KT 9999 VCSH SCT011 09/07 Q0990
Station Land's End Airport
Date/Time 25 April 2019 07:20:00
Wind direction 200°
Wind speed 20 kts
Lowest cloud amount scattered clouds
Temperature 9°C
Dew point 7°C
Humidity 87%
QNH 990 hPa
Weather condition in vicinity: showers